Warwick, Canada
Current Conditions -  °F | °C
As of 2:00 PM on Sunday 23 Nov 2014 (Local Time) from CYSC Reporting Station
Light Rain Light Rain  
Wind Chill: 39°   Ceiling: 300
Heat Index: 39°   Visibility: 0.37mi
Dew Point: 39°   Wind: 2mph
Humidity: 100%   Direction: 150°SSE
Pressure: 30.04"   Gusts: NA
Location:  45.95°N, 71.98°W
Report Text: CYSC 231900Z AUTO 15002KT 3/8SM -RA FG OVC003 04/04 A3004 RMK SLP182
Loading
Personal Weather Stations






























Interactive Weather Map New forecast layout! Learn more

10-Day Weather Forecast

Advertisements
Track Severe Weather on mobile